createdAt,value
2017-10-18T00:00:03.434Z,24.73
2017-10-18T00:02:29.782Z,24.20
2017-10-18T00:04:56.050Z,32.53
2017-10-18T00:07:22.324Z,22.03
2017-10-18T00:09:48.647Z,23.80
2017-10-18T00:12:14.905Z,28.87
2017-10-18T00:14:41.183Z,21.30
2017-10-18T00:17:07.490Z,26.57
2017-10-18T00:19:33.882Z,32.47
2017-10-18T00:22:00.152Z,26.67
2017-10-18T00:24:26.491Z,24.57
2017-10-18T00:26:52.770Z,29.50
2017-10-18T00:29:19.048Z,20.83
2017-10-18T00:31:45.355Z,25.07
2017-10-18T00:34:11.623Z,19.53
2017-10-18T00:36:37.950Z,25.63
2017-10-18T00:39:04.267Z,26.27
2017-10-18T00:41:30.535Z,23.17
2017-10-18T00:43:56.820Z,28.23
2017-10-18T00:46:23.142Z,28.33
2017-10-18T00:48:49.404Z,23.47
2017-10-18T00:51:15.702Z,24.23
2017-10-18T00:53:42.046Z,29.80
2017-10-18T00:56:08.351Z,31.10
2017-10-18T00:58:34.630Z,23.40
2017-10-18T01:01:00.938Z,29.23
2017-10-18T01:03:27.239Z,22.50
2017-10-18T01:05:53.513Z,21.00
2017-10-18T01:08:19.823Z,26.10
2017-10-18T01:10:46.112Z,25.53
2017-10-18T01:13:12.387Z,27.87
2017-10-18T01:15:38.697Z,20.03
2017-10-18T01:18:04.979Z,19.17
2017-10-18T01:20:31.336Z,20.97
2017-10-18T01:22:57.665Z,27.60
2017-10-18T01:25:23.936Z,23.73
2017-10-18T01:27:50.216Z,29.73
2017-10-18T01:30:16.543Z,22.37
2017-10-18T01:32:42.823Z,16.27
2017-10-18T01:35:09.103Z,32.27
2017-10-18T01:37:35.425Z,22.00
2017-10-18T01:40:01.692Z,19.73
2017-10-18T01:42:27.974Z,23.20
2017-10-18T01:44:54.300Z,30.60
2017-10-18T01:47:20.582Z,41.57
2017-10-18T01:49:46.867Z,25.90
2017-10-18T01:52:13.206Z,23.20
2017-10-18T01:54:39.488Z,23.70
2017-10-18T01:57:05.751Z,29.13
2017-10-18T01:59:32.061Z,23.87
2017-10-18T02:01:58.346Z,26.23
2017-10-18T02:04:24.656Z,30.67
2017-10-18T02:06:50.988Z,34.13
2017-10-18T02:09:17.267Z,25.23
2017-10-18T02:11:43.546Z,21.17
2017-10-18T02:14:09.857Z,26.70
2017-10-18T02:16:36.127Z,32.93
2017-10-18T02:19:02.412Z,23.80
2017-10-18T02:21:28.717Z,23.40
2017-10-18T02:23:54.996Z,23.37
2017-10-18T02:26:21.278Z,31.63
2017-10-18T02:28:47.710Z,28.87
2017-10-18T02:31:13.987Z,26.20
2017-10-18T02:33:40.261Z,21.93
2017-10-18T02:36:06.583Z,30.97
2017-10-18T02:38:32.881Z,18.47
2017-10-18T02:40:59.150Z,35.20
2017-10-18T02:43:25.558Z,32.23
2017-10-18T02:45:51.839Z,22.93
2017-10-18T02:48:18.126Z,25.40
2017-10-18T02:50:44.413Z,24.83
2017-10-18T02:53:10.693Z,25.07
2017-10-18T02:55:36.956Z,28.10
2017-10-18T02:58:03.271Z,27.90
2017-10-18T03:00:29.554Z,22.90
2017-10-18T03:02:55.826Z,25.90
2017-10-18T03:05:22.159Z,34.10
2017-10-18T03:07:48.443Z,27.57
2017-10-18T03:10:14.747Z,24.27
2017-10-18T03:12:41.076Z,24.50
2017-10-18T03:15:07.354Z,25.80
2017-10-18T03:17:33.611Z,29.23
2017-10-18T03:19:59.942Z,26.70
2017-10-18T03:22:26.234Z,27.37
2017-10-18T03:24:52.521Z,24.17
2017-10-18T03:27:18.860Z,20.57
2017-10-18T03:29:45.143Z,25.73
2017-10-18T03:32:11.430Z,22.97
2017-10-18T03:34:37.734Z,19.23
2017-10-18T03:37:04.012Z,26.90
2017-10-18T03:39:30.275Z,25.03
2017-10-18T03:41:56.679Z,25.37
2017-10-18T03:44:22.950Z,26.60
2017-10-18T03:46:49.239Z,31.07
2017-10-18T03:49:15.556Z,22.10
2017-10-18T03:51:41.838Z,32.77
2017-10-18T03:54:08.121Z,19.40
2017-10-18T03:56:34.450Z,25.50
2017-10-18T03:59:00.713Z,20.97
2017-10-18T04:01:26.970Z,30.40
2017-10-18T04:03:53.269Z,22.77
2017-10-18T04:06:19.551Z,27.10
2017-10-18T04:08:45.826Z,25.10
2017-10-18T04:11:12.140Z,26.90
2017-10-18T04:13:38.410Z,21.50
2017-10-18T04:16:04.678Z,35.80
2017-10-18T04:18:30.997Z,27.77
2017-10-18T04:20:57.376Z,26.30
2017-10-18T04:23:23.645Z,30.23
2017-10-18T04:25:49.962Z,29.80
2017-10-18T04:28:16.239Z,22.20
2017-10-18T04:30:42.499Z,23.93
2017-10-18T04:33:08.831Z,30.47
2017-10-18T04:35:35.113Z,28.87
2017-10-18T04:38:01.380Z,28.37
2017-10-18T04:40:27.689Z,49.43
2017-10-18T04:42:53.961Z,32.20
2017-10-18T04:45:20.248Z,37.83
2017-10-18T04:47:46.575Z,37.87
2017-10-18T04:50:12.851Z,18.83
2017-10-18T04:52:39.125Z,37.53
2017-10-18T04:55:05.423Z,24.70
2017-10-18T04:57:31.691Z,21.97
2017-10-18T04:59:57.955Z,25.43
2017-10-18T05:02:24.257Z,27.00
2017-10-18T05:04:50.522Z,31.77
2017-10-18T05:07:16.817Z,18.90
2017-10-18T05:09:43.124Z,28.90
2017-10-18T05:12:09.400Z,14.63
2017-10-18T05:14:35.677Z,27.33
2017-10-18T05:17:01.975Z,17.73
2017-10-18T05:19:28.235Z,16.63
2017-10-18T05:21:54.512Z,17.30
2017-10-18T05:24:20.806Z,12.13
2017-10-18T05:26:47.083Z,15.37
2017-10-18T05:29:13.346Z,17.70
2017-10-18T05:31:39.607Z,16.30
2017-10-18T05:34:05.864Z,57.57
2017-10-18T05:36:32.143Z,21.63
2017-10-18T05:38:58.411Z,18.53
2017-10-18T05:41:24.689Z,17.37
2017-10-18T05:43:50.947Z,12.30
2017-10-18T05:46:17.343Z,17.53
2017-10-18T05:48:43.623Z,13.73
2017-10-18T05:51:09.889Z,14.43
2017-10-18T05:53:36.169Z,18.77
2017-10-18T05:56:02.431Z,14.90
2017-10-18T05:58:28.706Z,14.50
2017-10-18T06:00:54.976Z,35.40
2017-10-18T06:03:21.247Z,20.40
2017-10-18T06:05:47.526Z,33.17
2017-10-18T06:08:13.804Z,24.63
2017-10-18T06:10:40.111Z,19.67
2017-10-18T06:13:06.392Z,21.97
2017-10-18T06:15:32.703Z,31.07
2017-10-18T06:17:58.978Z,16.73
2017-10-18T06:20:25.248Z,19.57
2017-10-18T06:22:51.574Z,21.57
2017-10-18T06:25:17.845Z,24.03
2017-10-18T06:27:44.118Z,28.70
2017-10-18T06:30:10.415Z,33.50
2017-10-18T06:32:36.689Z,12.23
2017-10-18T06:35:02.960Z,16.13
2017-10-18T06:37:29.239Z,19.97
2017-10-18T06:39:55.504Z,30.40
2017-10-18T06:42:21.794Z,31.00
2017-10-18T06:44:48.065Z,34.33
2017-10-18T06:47:14.344Z,19.23
2017-10-18T06:49:40.602Z,21.33
2017-10-18T06:52:06.877Z,24.67
2017-10-18T06:54:33.150Z,39.23
2017-10-18T06:56:59.419Z,14.40
2017-10-18T06:59:25.692Z,24.03
2017-10-18T07:01:52.001Z,21.80
2017-10-18T07:04:18.282Z,17.00
2017-10-18T07:06:44.546Z,28.53
2017-10-18T07:09:10.824Z,14.67
2017-10-18T07:11:37.099Z,21.73
2017-10-18T07:14:03.387Z,20.77
2017-10-18T07:16:29.655Z,25.00
2017-10-18T07:18:55.934Z,12.43
2017-10-18T07:21:22.216Z,22.40
2017-10-18T07:23:48.473Z,15.00
2017-10-18T07:26:14.782Z,11.73
2017-10-18T07:28:41.073Z,13.57
2017-10-18T07:31:07.366Z,20.03
2017-10-18T07:33:33.690Z,14.73
2017-10-18T07:35:59.971Z,9.90
2017-10-18T07:38:26.257Z,14.90
2017-10-18T07:40:52.629Z,12.23
2017-10-18T07:43:18.906Z,17.00
2017-10-18T07:45:45.288Z,10.43
2017-10-18T07:48:11.584Z,24.03
2017-10-18T07:50:37.851Z,17.57
2017-10-18T07:53:04.111Z,13.60
2017-10-18T07:55:30.404Z,20.53
2017-10-18T07:57:56.673Z,15.10
2017-10-18T08:00:22.950Z,27.33
2017-10-18T08:02:49.221Z,13.30
2017-10-18T08:05:15.490Z,12.73
2017-10-18T08:07:41.764Z,14.73
2017-10-18T08:10:08.023Z,22.03
2017-10-18T08:12:34.286Z,11.00
2017-10-18T08:15:00.544Z,15.13
2017-10-18T08:17:26.816Z,13.73
2017-10-18T08:19:53.109Z,19.13
2017-10-18T08:22:19.381Z,19.17
2017-10-18T08:24:45.739Z,15.10
2017-10-18T08:27:12.015Z,14.90
2017-10-18T08:29:38.306Z,17.47
2017-10-18T08:32:04.568Z,17.47
2017-10-18T08:34:30.872Z,10.77
2017-10-18T08:36:57.135Z,23.27
2017-10-18T08:39:23.541Z,13.53
2017-10-18T08:41:49.866Z,11.87
2017-10-18T08:44:16.129Z,22.73
2017-10-18T08:46:42.379Z,22.33
2017-10-18T08:49:09.884Z,22.53
2017-10-18T08:51:35.013Z,20.67
2017-10-18T08:54:01.271Z,16.17
2017-10-18T08:56:27.534Z,21.77
2017-10-18T08:58:53.791Z,31.90
2017-10-18T09:01:20.118Z,14.93
2017-10-18T09:03:46.392Z,27.37
2017-10-18T09:06:12.666Z,12.13
2017-10-18T09:08:38.979Z,39.83
2017-10-18T09:11:05.241Z,14.33
2017-10-18T09:13:31.580Z,21.93
2017-10-18T09:15:57.986Z,9.80
2017-10-18T09:18:24.266Z,11.33
2017-10-18T09:20:50.564Z,28.23
2017-10-18T09:23:16.822Z,19.57
2017-10-18T09:25:43.102Z,17.33
2017-10-18T09:28:09.369Z,21.90
2017-10-18T09:30:35.693Z,28.05
2017-10-18T09:33:02.144Z,23.70
2017-10-18T09:35:28.417Z,17.40
2017-10-18T09:37:54.692Z,20.83
2017-10-18T09:40:20.972Z,23.10
2017-10-18T09:42:47.328Z,15.67
2017-10-18T09:45:13.621Z,10.20
2017-10-18T09:47:39.886Z,24.93
2017-10-18T09:50:06.144Z,10.57
2017-10-18T09:52:32.399Z,15.98
2017-10-18T09:54:58.678Z,19.65
2017-10-18T09:57:24.934Z,14.40
2017-10-18T09:59:51.241Z,28.17
2017-10-18T10:02:17.512Z,22.73
2017-10-18T10:04:43.821Z,18.27
2017-10-18T10:07:10.074Z,29.05
2017-10-18T10:09:36.349Z,18.87
2017-10-18T10:12:02.695Z,14.43
2017-10-18T10:14:28.958Z,11.02
2017-10-18T10:16:55.232Z,18.10
2017-10-18T10:19:21.565Z,22.50
2017-10-18T10:21:47.830Z,16.10
2017-10-18T10:24:14.145Z,10.13
2017-10-18T10:26:40.415Z,9.00
2017-10-18T10:29:06.695Z,6.37
2017-10-18T10:31:32.955Z,14.82
2017-10-18T10:33:59.206Z,17.35
2017-10-18T10:36:25.621Z,7.55
2017-10-18T10:38:51.901Z,14.07
2017-10-18T10:41:18.189Z,11.77
2017-10-18T10:43:44.599Z,12.80
2017-10-18T10:46:10.873Z,14.98
2017-10-18T10:48:37.166Z,12.82
2017-10-18T10:51:03.441Z,3.50
2017-10-18T10:53:29.702Z,9.43
2017-10-18T10:55:56.013Z,6.35
2017-10-18T10:58:22.326Z,7.50
2017-10-18T11:00:48.580Z,4.78
2017-10-18T11:03:14.892Z,8.10
2017-10-18T11:05:41.167Z,6.70
2017-10-18T11:08:07.434Z,7.82
2017-10-18T11:10:33.813Z,7.55
2017-10-18T11:13:00.091Z,5.62
2017-10-18T11:15:26.403Z,11.95
2017-10-18T11:17:52.673Z,4.45
2017-10-18T11:20:18.931Z,18.08
2017-10-18T11:22:45.178Z,5.18
2017-10-18T11:25:11.426Z,38.72
2017-10-18T11:27:37.699Z,15.75
2017-10-18T11:30:04.033Z,6.35
2017-10-18T11:32:30.296Z,5.68
2017-10-18T11:34:56.561Z,3.55
2017-10-18T11:37:22.817Z,11.57
2017-10-18T11:39:49.121Z,5.97
2017-10-18T11:42:15.376Z,9.55
2017-10-18T11:44:41.639Z,4.78
2017-10-18T11:47:07.914Z,8.55
2017-10-18T11:49:34.172Z,12.40
2017-10-18T11:52:00.508Z,10.98
2017-10-18T11:54:26.944Z,6.00
2017-10-18T11:56:53.212Z,3.60
2017-10-18T11:59:19.471Z,10.77
2017-10-18T12:01:45.828Z,8.75
2017-10-18T12:04:12.139Z,4.65
2017-10-18T12:06:38.401Z,4.32
2017-10-18T12:09:04.653Z,6.90
2017-10-18T12:11:30.976Z,9.73
2017-10-18T12:13:57.228Z,4.20
2017-10-18T12:16:23.533Z,16.73
2017-10-18T12:18:49.788Z,4.20
2017-10-18T12:21:16.040Z,15.90
2017-10-18T12:23:42.296Z,10.18
2017-10-18T12:26:08.554Z,12.20
2017-10-18T12:28:34.855Z,9.05
2017-10-18T12:31:01.119Z,7.70
2017-10-18T12:33:27.657Z,15.05
2017-10-18T12:35:54.257Z,11.23
2017-10-18T12:38:20.690Z,8.90
2017-10-18T12:40:47.107Z,4.90
2017-10-18T12:43:13.374Z,4.75
2017-10-18T12:45:39.647Z,7.30
2017-10-18T12:48:05.947Z,6.97
2017-10-18T12:50:32.223Z,4.40
2017-10-18T12:52:58.529Z,5.95
2017-10-18T12:55:24.789Z,4.28
2017-10-18T12:57:51.039Z,5.43
2017-10-18T13:00:17.344Z,3.65
2017-10-18T13:02:43.785Z,10.15
2017-10-18T13:05:10.258Z,13.93
2017-10-18T13:07:36.539Z,6.20
2017-10-18T13:10:02.835Z,10.05
2017-10-18T13:12:29.124Z,10.50
2017-10-18T13:14:55.485Z,3.78
2017-10-18T13:17:21.793Z,8.77
2017-10-18T13:19:48.065Z,6.10
2017-10-18T13:22:14.359Z,6.03
2017-10-18T13:24:40.655Z,4.78
2017-10-18T13:27:06.947Z,7.60
2017-10-18T13:29:33.247Z,3.93
2017-10-18T13:31:59.498Z,5.23
2017-10-18T13:34:25.805Z,9.53
2017-10-18T13:36:52.069Z,3.17
2017-10-18T13:39:18.314Z,5.33
2017-10-18T13:41:44.686Z,8.27
2017-10-18T13:44:10.939Z,9.83
2017-10-18T13:46:37.204Z,19.13
2017-10-18T13:49:03.468Z,6.37
2017-10-18T13:51:29.767Z,11.63
2017-10-18T13:53:56.192Z,6.67
2017-10-18T13:56:22.442Z,20.00
2017-10-18T13:58:48.732Z,20.67
2017-10-18T14:01:15.019Z,14.30
2017-10-18T14:03:41.284Z,14.40
2017-10-18T14:06:07.543Z,18.43
2017-10-18T14:08:33.823Z,22.47
2017-10-18T14:11:00.129Z,52.63
2017-10-18T14:13:26.380Z,25.43
2017-10-18T14:15:52.641Z,21.10
2017-10-18T14:18:18.920Z,63.97
2017-10-18T14:20:45.161Z,34.97
2017-10-18T14:23:11.443Z,32.10
2017-10-18T14:25:37.730Z,37.33
2017-10-18T14:28:04.003Z,44.20
2017-10-18T14:30:30.276Z,36.13
2017-10-18T14:32:56.543Z,45.93
2017-10-18T14:35:22.839Z,55.57
2017-10-18T14:37:49.133Z,42.27
2017-10-18T14:40:15.426Z,49.67
2017-10-18T14:42:41.824Z,31.40
2017-10-18T14:45:08.091Z,48.73
2017-10-18T14:47:34.607Z,29.27
2017-10-18T14:50:01.140Z,33.17
2017-10-18T14:52:28.226Z,52.00
2017-10-18T14:54:54.891Z,41.20
2017-10-18T14:57:21.897Z,59.03
2017-10-18T14:59:48.916Z,21.43
2017-10-18T15:02:15.273Z,33.63
2017-10-18T15:04:42.061Z,26.43
2017-10-18T15:07:08.701Z,47.60
2017-10-18T15:09:35.055Z,24.50
2017-10-18T15:12:01.320Z,25.73
2017-10-18T15:14:27.608Z,24.67
2017-10-18T15:16:53.868Z,40.30
2017-10-18T15:19:20.123Z,30.63
2017-10-18T15:21:46.398Z,47.27
2017-10-18T15:24:12.668Z,37.33
2017-10-18T15:26:38.923Z,79.60
2017-10-18T15:29:05.193Z,47.57
2017-10-18T15:31:31.505Z,30.20
2017-10-18T15:33:57.768Z,25.60
2017-10-18T15:36:24.015Z,41.80
2017-10-18T15:38:50.274Z,39.87
2017-10-18T15:41:16.515Z,57.40
2017-10-18T15:43:42.763Z,42.57
2017-10-18T15:46:09.024Z,61.27
2017-10-18T15:48:35.281Z,50.87
2017-10-18T15:51:01.599Z,50.00
2017-10-18T15:53:27.866Z,55.33
2017-10-18T15:58:26.650Z,55.40
2017-10-18T16:00:52.912Z,61.30
2017-10-18T16:03:19.169Z,55.80
2017-10-18T16:05:45.416Z,45.17
2017-10-18T16:08:11.748Z,45.80
2017-10-18T16:10:37.994Z,45.10
2017-10-18T16:13:04.300Z,48.60
2017-10-18T16:15:30.598Z,38.97
2017-10-18T16:17:56.853Z,48.80
2017-10-18T16:20:23.109Z,40.23
2017-10-18T16:22:49.356Z,35.47
2017-10-18T16:25:15.612Z,31.47
2017-10-18T16:27:41.884Z,17.93
2017-10-18T16:30:08.181Z,40.70
2017-10-18T16:32:34.453Z,44.57
2017-10-18T16:35:00.723Z,47.00
2017-10-18T16:37:27.004Z,43.17
2017-10-18T16:39:53.290Z,64.73
2017-10-18T16:42:19.564Z,31.40
2017-10-18T16:44:45.821Z,52.30
2017-10-18T16:47:12.070Z,33.80
2017-10-18T16:49:38.336Z,66.13
2017-10-18T16:52:04.617Z,39.60
2017-10-18T16:54:30.891Z,55.77
2017-10-18T16:56:57.168Z,67.00
2017-10-18T16:59:23.436Z,109.50
2017-10-18T17:01:49.728Z,46.17
2017-10-18T17:04:16.008Z,69.97
2017-10-18T17:06:42.291Z,60.30
2017-10-18T17:09:08.589Z,62.60
2017-10-18T17:11:34.876Z,55.67
2017-10-18T17:14:01.143Z,50.33
2017-10-18T17:16:27.413Z,55.83
2017-10-18T17:18:53.693Z,52.03
2017-10-18T17:21:19.990Z,39.30
2017-10-18T17:23:46.238Z,60.63
2017-10-18T17:26:12.665Z,29.57
2017-10-18T17:28:38.930Z,59.10
2017-10-18T17:31:05.275Z,53.80
2017-10-18T17:33:31.537Z,43.67
2017-10-18T17:35:57.990Z,54.53
2017-10-18T17:38:24.248Z,47.20
2017-10-18T17:40:50.520Z,46.60
2017-10-18T17:43:16.758Z,62.40
2017-10-18T17:45:43.009Z,52.77
2017-10-18T17:48:09.271Z,40.67
2017-10-18T17:50:35.548Z,65.03
2017-10-18T17:53:01.780Z,26.73
2017-10-18T17:55:28.046Z,36.43
2017-10-18T17:57:54.339Z,36.30
2017-10-18T18:00:20.634Z,55.40
2017-10-18T18:02:46.879Z,33.90
2017-10-18T18:05:13.149Z,87.20
2017-10-18T18:07:39.433Z,62.27
2017-10-18T18:10:06.150Z,50.90
2017-10-18T18:12:32.533Z,47.87
2017-10-18T18:14:58.842Z,44.70
2017-10-18T18:17:25.107Z,28.43
2017-10-18T18:19:51.379Z,47.97
2017-10-18T18:22:17.624Z,42.23
2017-10-18T18:24:44.048Z,20.10
2017-10-18T18:27:10.311Z,39.53
2017-10-18T18:29:36.544Z,45.83
2017-10-18T18:32:02.824Z,34.20
2017-10-18T18:34:29.158Z,28.67
2017-10-18T18:36:55.428Z,60.10
2017-10-18T18:39:21.700Z,34.23
2017-10-18T18:41:47.986Z,37.17
2017-10-18T18:44:14.248Z,33.10
2017-10-18T18:46:40.514Z,29.57
2017-10-18T18:49:06.781Z,34.00
2017-10-18T18:51:33.048Z,49.60
2017-10-18T18:53:59.328Z,26.30
2017-10-18T18:56:25.586Z,48.00
2017-10-18T18:58:51.854Z,33.67
2017-10-18T19:01:18.122Z,38.03
2017-10-18T19:03:44.384Z,22.60
2017-10-18T19:06:10.637Z,39.03
2017-10-18T19:08:36.884Z,42.70
2017-10-18T19:11:03.263Z,41.83
2017-10-18T19:13:29.526Z,56.80
2017-10-18T19:15:55.808Z,39.43
2017-10-18T19:18:22.175Z,46.03
2017-10-18T19:20:48.425Z,37.63
2017-10-18T19:23:14.685Z,39.53
2017-10-18T19:25:41.079Z,35.00
2017-10-18T19:28:07.359Z,39.83
2017-10-18T19:30:33.649Z,32.67
2017-10-18T19:33:00.036Z,29.73
2017-10-18T19:35:26.308Z,43.97
2017-10-18T19:37:52.609Z,34.97
2017-10-18T19:40:18.851Z,39.17
2017-10-18T19:42:45.141Z,40.83
2017-10-18T19:45:11.525Z,54.30
2017-10-18T19:47:37.829Z,34.03
2017-10-18T19:50:04.092Z,39.07
2017-10-18T19:52:30.387Z,30.07
2017-10-18T19:54:56.645Z,26.80
2017-10-18T19:57:22.908Z,28.87
2017-10-18T19:59:52.447Z,35.63
2017-10-18T20:02:18.865Z,46.00
2017-10-18T20:04:45.160Z,28.63
2017-10-18T20:07:12.704Z,24.03
2017-10-18T20:09:39.093Z,24.20
2017-10-18T20:12:05.380Z,24.57
2017-10-18T20:14:31.624Z,28.20
2017-10-18T20:16:57.884Z,33.87
2017-10-18T20:19:24.144Z,30.87
2017-10-18T20:21:50.432Z,25.33
2017-10-18T20:24:17.909Z,29.93
2017-10-18T20:26:44.179Z,33.90
2017-10-18T20:29:10.481Z,28.60
2017-10-18T20:31:36.727Z,45.83
2017-10-18T20:34:03.039Z,39.43
2017-10-18T20:36:29.297Z,26.90
2017-10-18T20:38:55.567Z,21.40
2017-10-18T20:41:21.834Z,31.20
2017-10-18T20:43:48.321Z,43.90
2017-10-18T20:46:14.617Z,22.70
2017-10-18T20:48:40.873Z,25.57
2017-10-18T20:51:07.159Z,26.93
2017-10-18T20:53:33.416Z,35.37
2017-10-18T20:55:59.703Z,26.43
2017-10-18T20:58:25.942Z,37.17
2017-10-18T21:00:52.197Z,26.50
2017-10-18T21:03:18.446Z,26.20
2017-10-18T21:05:44.711Z,27.83
2017-10-18T21:08:10.981Z,36.47
2017-10-18T21:10:37.313Z,34.70
2017-10-18T21:13:03.565Z,26.47
2017-10-18T21:15:29.871Z,27.73
2017-10-18T21:17:56.141Z,23.53
2017-10-18T21:20:22.477Z,40.83
2017-10-18T21:22:48.750Z,22.97
2017-10-18T21:25:15.015Z,19.73
2017-10-18T21:27:41.319Z,28.63
2017-10-18T21:30:07.669Z,23.00
2017-10-18T21:32:33.969Z,24.77
2017-10-18T21:35:00.271Z,39.53
2017-10-18T21:37:26.534Z,16.93
2017-10-18T21:39:52.801Z,29.60
2017-10-18T21:42:19.042Z,24.87
2017-10-18T21:44:45.357Z,26.27
2017-10-18T21:47:11.604Z,21.67
2017-10-18T21:49:37.864Z,45.73
2017-10-18T21:52:04.219Z,27.33
2017-10-18T21:54:30.494Z,25.90
2017-10-18T21:56:56.746Z,31.60
2017-10-18T21:59:23.009Z,39.27
2017-10-18T22:01:49.275Z,23.43
2017-10-18T22:04:15.539Z,29.83
2017-10-18T22:06:41.814Z,20.63
2017-10-18T22:09:08.084Z,24.73
2017-10-18T22:11:34.341Z,28.63
2017-10-18T22:14:00.639Z,30.27
2017-10-18T22:16:26.921Z,25.97
2017-10-18T22:18:53.188Z,27.70
2017-10-18T22:21:19.469Z,25.77
2017-10-18T22:23:45.744Z,36.47
2017-10-18T22:26:12.322Z,58.93
2017-10-18T22:28:38.611Z,26.23
2017-10-18T22:31:04.894Z,32.23
2017-10-18T22:33:31.186Z,22.53
2017-10-18T22:35:57.436Z,29.23
2017-10-18T22:38:23.694Z,26.23
2017-10-18T22:40:50.014Z,34.67
2017-10-18T22:43:16.311Z,28.77
2017-10-18T22:45:42.609Z,18.60
2017-10-18T22:48:08.951Z,27.47
2017-10-18T22:50:35.220Z,25.90
2017-10-18T22:53:01.488Z,35.00
2017-10-18T22:55:27.762Z,28.90
2017-10-18T22:57:54.042Z,34.07
2017-10-18T23:00:20.308Z,25.73
2017-10-18T23:02:46.565Z,28.00
2017-10-18T23:05:12.860Z,30.40
2017-10-18T23:07:39.142Z,16.73
2017-10-18T23:10:05.429Z,21.90
2017-10-18T23:12:31.737Z,23.70
2017-10-18T23:14:57.975Z,29.93
2017-10-18T23:17:24.230Z,37.33
2017-10-18T23:19:50.500Z,28.17
2017-10-18T23:22:16.907Z,31.63
2017-10-18T23:24:43.340Z,30.93
2017-10-18T23:27:09.615Z,29.87
2017-10-18T23:29:35.878Z,21.90
2017-10-18T23:32:02.170Z,27.77
2017-10-18T23:34:28.472Z,26.37
2017-10-18T23:36:54.727Z,29.90
2017-10-18T23:39:20.997Z,30.80
2017-10-18T23:41:47.236Z,26.00
2017-10-18T23:44:13.520Z,21.97
2017-10-18T23:46:39.755Z,33.83
2017-10-18T23:49:06.036Z,30.97
2017-10-18T23:51:32.298Z,21.40
2017-10-18T23:53:58.601Z,50.30
2017-10-18T23:56:24.861Z,28.93
2017-10-18T23:58:51.128Z,26.03
